createdAt,value
2022-08-30T00:01:06.709Z,18.59
2022-08-30T00:04:14.332Z,18.54
2022-08-30T00:07:20.561Z,18.45
2022-08-30T00:10:28.824Z,18.08
2022-08-30T00:13:35.743Z,18.44
2022-08-30T00:16:42.172Z,18.50
2022-08-30T00:19:49.856Z,17.99
2022-08-30T00:22:56.088Z,18.24
2022-08-30T00:26:03.007Z,18.33
2022-08-30T00:29:09.350Z,17.82
2022-08-30T00:32:16.375Z,17.64
2022-08-30T00:35:25.286Z,17.63
2022-08-30T00:38:31.895Z,17.87
2022-08-30T00:41:38.406Z,18.34
2022-08-30T00:44:46.127Z,18.12
2022-08-30T00:47:52.925Z,18.34
2022-08-30T00:51:03.600Z,18.43
2022-08-30T00:54:10.106Z,18.28
2022-08-30T00:57:17.222Z,18.39
2022-08-30T01:00:24.024Z,18.43
2022-08-30T01:03:32.599Z,18.41
2022-08-30T01:06:40.736Z,18.34
2022-08-30T01:09:47.532Z,18.30
2022-08-30T01:12:54.203Z,18.16
2022-08-30T01:16:01.164Z,18.03
2022-08-30T01:19:19.731Z,18.30
2022-08-30T01:22:40.716Z,18.45
2022-08-30T01:25:54.333Z,18.42
2022-08-30T01:29:05.506Z,18.44
2022-08-30T01:32:21.184Z,18.49
2022-08-30T01:35:29.813Z,18.65
2022-08-30T01:38:38.610Z,18.57
2022-08-30T01:41:46.711Z,18.63
2022-08-30T01:44:53.611Z,18.41
2022-08-30T01:48:01.654Z,18.17
2022-08-30T01:51:13.523Z,18.43
2022-08-30T01:54:19.823Z,18.19
2022-08-30T01:57:28.411Z,18.20
2022-08-30T02:00:35.252Z,18.34
2022-08-30T02:03:42.313Z,18.35
2022-08-30T02:06:49.291Z,18.06
2022-08-30T02:09:56.950Z,18.39
2022-08-30T02:13:05.442Z,18.38
2022-08-30T02:16:16.231Z,17.62
2022-08-30T02:19:22.467Z,17.16
2022-08-30T02:22:28.888Z,17.54
2022-08-30T02:25:35.585Z,17.34
2022-08-30T02:28:50.044Z,17.17
2022-08-30T02:31:56.593Z,17.36
2022-08-30T02:35:02.700Z,17.47
2022-08-30T02:38:09.610Z,17.40
2022-08-30T02:41:16.272Z,17.21
2022-08-30T02:44:23.981Z,17.24
2022-08-30T02:47:30.375Z,16.88
2022-08-30T02:50:36.425Z,16.77
2022-08-30T02:53:44.716Z,17.20
2022-08-30T02:56:51.787Z,16.65
2022-08-30T02:59:59.685Z,16.48
2022-08-30T03:03:07.574Z,16.68
2022-08-30T03:06:14.059Z,16.85
2022-08-30T03:09:20.495Z,17.03
2022-08-30T03:12:26.769Z,17.12
2022-08-30T03:15:35.504Z,17.09
2022-08-30T03:18:43.293Z,16.75
2022-08-30T03:21:49.452Z,16.01
2022-08-30T03:24:58.107Z,16.01
2022-08-30T03:28:05.672Z,16.56
2022-08-30T03:31:13.834Z,16.15
2022-08-30T03:34:20.269Z,16.15
2022-08-30T03:37:27.684Z,16.10
2022-08-30T03:40:34.089Z,16.06
2022-08-30T03:43:40.417Z,16.15
2022-08-30T03:46:48.646Z,15.78
2022-08-30T03:49:54.859Z,15.59
2022-08-30T03:53:02.061Z,16.08
2022-08-30T03:56:08.760Z,16.70
2022-08-30T03:59:15.542Z,16.60
2022-08-30T04:02:23.586Z,16.65
2022-08-30T04:05:30.140Z,16.32
2022-08-30T04:08:37.228Z,15.70
2022-08-30T04:11:43.939Z,15.77
2022-08-30T04:14:50.541Z,15.64
2022-08-30T04:17:58.467Z,15.85
2022-08-30T04:21:05.615Z,15.39
2022-08-30T04:24:12.392Z,15.81
2022-08-30T04:27:20.498Z,16.11
2022-08-30T04:30:26.812Z,16.42
2022-08-30T04:33:35.722Z,16.28
2022-08-30T04:36:48.057Z,16.64
2022-08-30T04:39:57.580Z,16.86
2022-08-30T04:43:04.218Z,17.09
2022-08-30T04:46:13.963Z,17.10
2022-08-30T04:49:22.999Z,17.08
2022-08-30T04:52:30.600Z,17.42
2022-08-30T04:55:37.544Z,17.51
2022-08-30T04:58:43.656Z,17.48
2022-08-30T05:01:50.140Z,17.54
2022-08-30T05:05:11.580Z,18.18
2022-08-30T05:08:24.755Z,17.67
2022-08-30T05:11:31.803Z,17.43
2022-08-30T05:14:38.435Z,17.26
2022-08-30T05:17:44.952Z,17.30
2022-08-30T05:20:52.465Z,17.90
2022-08-30T05:24:01.118Z,17.58
2022-08-30T05:27:07.703Z,17.98
2022-08-30T05:30:14.916Z,17.94
2022-08-30T05:33:20.972Z,18.44
2022-08-30T05:36:31.145Z,18.42
2022-08-30T05:39:50.941Z,18.47
2022-08-30T05:42:57.959Z,18.31
2022-08-30T05:46:06.641Z,18.73
2022-08-30T05:49:13.160Z,19.18
2022-08-30T05:52:20.979Z,19.47
2022-08-30T05:55:27.191Z,19.55
2022-08-30T05:58:34.107Z,20.24
2022-08-30T06:01:42.403Z,20.30
2022-08-30T06:04:48.850Z,20.60
2022-08-30T06:07:57.191Z,20.86
2022-08-30T06:11:03.627Z,20.79
2022-08-30T06:14:10.343Z,21.12
2022-08-30T06:17:16.756Z,20.32
2022-08-30T06:20:23.501Z,20.61
2022-08-30T06:23:31.779Z,21.17
2022-08-30T06:26:40.858Z,21.68
2022-08-30T06:29:47.821Z,21.44
2022-08-30T06:32:54.227Z,21.46
2022-08-30T06:36:05.940Z,21.74
2022-08-30T06:39:14.082Z,22.24
2022-08-30T06:42:20.618Z,22.25
2022-08-30T06:45:27.071Z,21.87
2022-08-30T06:48:33.423Z,22.28
2022-08-30T06:51:41.264Z,22.36
2022-08-30T06:54:49.939Z,22.88
2022-08-30T06:57:57.530Z,22.58
2022-08-30T07:01:04.128Z,22.84
2022-08-30T07:04:10.712Z,22.69
2022-08-30T07:07:17.001Z,22.79
2022-08-30T07:10:24.561Z,23.32
2022-08-30T07:13:31.375Z,23.73
2022-08-30T07:16:38.099Z,24.10
2022-08-30T07:19:43.514Z,24.24
2022-08-30T07:22:50.465Z,23.63
2022-08-30T07:25:58.520Z,24.10
2022-08-30T07:29:06.487Z,24.33
2022-08-30T07:32:13.071Z,23.92
2022-08-30T07:35:19.575Z,24.52
2022-08-30T07:38:26.081Z,24.29
2022-08-30T07:41:39.723Z,24.33
2022-08-30T07:44:46.413Z,24.77
2022-08-30T07:47:52.988Z,24.48
2022-08-30T07:51:04.501Z,24.70
2022-08-30T07:54:11.379Z,25.07
2022-08-30T07:57:19.551Z,25.53
2022-08-30T08:00:25.974Z,25.25
2022-08-30T08:03:32.617Z,25.52
2022-08-30T08:06:41.181Z,25.58
2022-08-30T08:09:47.875Z,25.20
2022-08-30T08:12:55.479Z,26.03
2022-08-30T08:16:02.009Z,25.93
2022-08-30T08:19:10.043Z,26.59
2022-08-30T08:22:21.369Z,26.68
2022-08-30T08:25:28.578Z,26.89
2022-08-30T08:28:38.490Z,26.92
2022-08-30T08:31:46.847Z,26.98
2022-08-30T08:34:52.975Z,27.07
2022-08-30T08:37:59.262Z,27.46
2022-08-30T08:41:11.723Z,27.32
2022-08-30T08:44:33.806Z,26.63
2022-08-30T08:47:43.420Z,27.06
2022-08-30T08:51:04.650Z,26.90
2022-08-30T08:54:16.092Z,26.89
2022-08-30T08:57:24.690Z,27.92
2022-08-30T09:00:34.065Z,27.33
2022-08-30T09:03:40.791Z,27.03
2022-08-30T09:06:54.468Z,26.35
2022-08-30T09:10:01.713Z,25.73
2022-08-30T09:13:07.911Z,26.35
2022-08-30T09:16:49.083Z,26.10
2022-08-30T09:20:01.188Z,25.75
2022-08-30T09:23:24.075Z,25.68
2022-08-30T09:26:33.503Z,25.15
2022-08-30T09:29:52.327Z,25.20
2022-08-30T09:33:02.887Z,25.51
2022-08-30T09:36:22.545Z,25.25
2022-08-30T09:39:32.752Z,25.73
2022-08-30T09:42:39.826Z,26.09
2022-08-30T09:45:50.471Z,25.89
2022-08-30T09:49:00.822Z,25.63
2022-08-30T09:52:18.229Z,25.77
2022-08-30T09:55:50.657Z,25.62
2022-08-30T09:59:07.288Z,26.03
2022-08-30T10:02:45.127Z,25.93
2022-08-30T10:06:00.159Z,25.70
2022-08-30T10:09:21.025Z,26.14
2022-08-30T10:12:33.766Z,26.16
2022-08-30T10:15:47.785Z,26.54
2022-08-30T10:19:06.350Z,26.34
2022-08-30T10:22:18.151Z,26.93
2022-08-30T10:25:30.207Z,26.59
2022-08-30T10:28:43.920Z,26.04
2022-08-30T10:32:00.222Z,25.78
2022-08-30T10:35:11.085Z,25.88
2022-08-30T10:38:25.889Z,26.05
2022-08-30T10:41:39.196Z,25.87
2022-08-30T10:44:48.098Z,25.70
2022-08-30T10:48:01.611Z,25.89
2022-08-30T10:51:11.675Z,25.75
2022-08-30T10:54:24.921Z,25.49
2022-08-30T10:57:31.620Z,25.52
2022-08-30T11:00:43.665Z,25.47
2022-08-30T11:04:21.960Z,25.61
2022-08-30T11:07:39.696Z,25.88
2022-08-30T11:11:00.660Z,25.53
2022-08-30T11:14:11.511Z,26.07
2022-08-30T11:17:30.710Z,26.44
2022-08-30T11:20:41.512Z,26.58
2022-08-30T11:24:01.278Z,26.35
2022-08-30T11:27:11.288Z,27.04
2022-08-30T11:30:52.995Z,27.56
2022-08-30T11:34:01.203Z,27.14
2022-08-30T11:37:10.396Z,26.94
2022-08-30T11:40:53.471Z,26.36
2022-08-30T11:44:27.947Z,26.64
2022-08-30T11:47:44.955Z,26.69
2022-08-30T11:50:56.564Z,26.43
2022-08-30T11:54:09.527Z,26.18
2022-08-30T11:57:27.556Z,26.86
2022-08-30T12:00:39.798Z,26.05
2022-08-30T12:03:56.425Z,26.21
2022-08-30T12:07:05.749Z,26.17
2022-08-30T12:10:25.746Z,26.13
2022-08-30T12:13:54.941Z,25.78
2022-08-30T12:17:21.123Z,25.88
2022-08-30T12:20:32.096Z,26.03
2022-08-30T12:23:49.759Z,26.33
2022-08-30T12:26:58.331Z,26.74
2022-08-30T12:30:08.671Z,26.32
2022-08-30T12:33:29.100Z,26.32
2022-08-30T12:36:39.731Z,26.90
2022-08-30T12:39:47.287Z,26.99
2022-08-30T12:43:02.898Z,27.61
2022-08-30T12:46:16.207Z,27.49
2022-08-30T12:49:28.236Z,28.46
2022-08-30T12:52:38.948Z,28.21
2022-08-30T12:55:54.172Z,28.19
2022-08-30T12:59:00.688Z,27.54
2022-08-30T13:02:20.357Z,27.30
2022-08-30T13:05:48.244Z,26.30
2022-08-30T13:08:55.672Z,26.03
2022-08-30T13:12:03.293Z,25.18
2022-08-30T13:15:18.249Z,24.74
2022-08-30T13:18:30.119Z,24.86
2022-08-30T13:21:51.683Z,23.23
2022-08-30T13:24:58.267Z,22.29
2022-08-30T13:28:06.439Z,21.92
2022-08-30T13:31:12.954Z,21.72
2022-08-30T13:34:22.442Z,21.57
2022-08-30T13:37:50.027Z,21.61
2022-08-30T13:40:57.302Z,21.66
2022-08-30T13:44:13.431Z,21.05
2022-08-30T13:47:37.301Z,21.26
2022-08-30T13:50:44.236Z,20.96
2022-08-30T13:53:53.361Z,20.77
2022-08-30T13:57:00.626Z,20.61
2022-08-30T14:00:12.245Z,20.84
2022-08-30T14:03:19.027Z,21.12
2022-08-30T14:06:33.715Z,21.19
2022-08-30T14:09:42.308Z,21.15
2022-08-30T14:13:00.825Z,20.44
2022-08-30T14:16:29.524Z,19.80
2022-08-30T14:19:36.114Z,19.57
2022-08-30T14:22:42.695Z,19.22
2022-08-30T14:25:50.452Z,19.70
2022-08-30T14:28:57.316Z,19.52
2022-08-30T14:32:06.046Z,18.90
2022-08-30T14:35:12.259Z,19.27
2022-08-30T14:38:18.919Z,19.13
2022-08-30T14:41:26.611Z,19.31
2022-08-30T14:44:54.819Z,19.54
2022-08-30T14:48:02.813Z,20.22
2022-08-30T14:51:17.732Z,20.26
2022-08-30T14:54:26.995Z,20.69
2022-08-30T14:57:35.070Z,20.99
2022-08-30T15:00:41.491Z,20.34
2022-08-30T15:03:48.239Z,20.35
2022-08-30T15:06:55.230Z,20.74
2022-08-30T15:10:01.727Z,20.43
2022-08-30T15:13:09.687Z,21.15
2022-08-30T15:16:18.219Z,21.02
2022-08-30T15:19:24.551Z,20.98
2022-08-30T15:22:30.754Z,21.06
2022-08-30T15:25:37.159Z,21.17
2022-08-30T15:28:50.575Z,21.01
2022-08-30T15:31:57.052Z,21.03
2022-08-30T15:35:04.370Z,20.56
2022-08-30T15:38:10.551Z,20.31
2022-08-30T15:41:18.954Z,20.11
2022-08-30T15:44:26.636Z,20.10
2022-08-30T15:47:33.192Z,19.94
2022-08-30T15:50:40.366Z,20.00
2022-08-30T15:53:47.669Z,20.16
2022-08-30T15:56:59.582Z,20.16
2022-08-30T16:00:09.444Z,19.96
2022-08-30T16:03:15.591Z,19.87
2022-08-30T16:06:24.411Z,20.06
2022-08-30T16:09:32.585Z,19.89
2022-08-30T16:12:38.994Z,20.07
2022-08-30T16:15:46.623Z,20.07
2022-08-30T16:18:55.266Z,20.16
2022-08-30T16:22:02.638Z,20.01
2022-08-30T16:25:09.567Z,20.00
2022-08-30T16:28:18.018Z,20.00
2022-08-30T16:31:27.026Z,19.90
2022-08-30T16:34:33.876Z,20.00
2022-08-30T16:37:40.003Z,19.86
2022-08-30T16:40:46.374Z,19.65
2022-08-30T16:43:53.737Z,19.70
2022-08-30T16:47:01.689Z,19.72
2022-08-30T16:50:08.786Z,19.31
2022-08-30T16:53:15.661Z,19.40
2022-08-30T16:56:25.142Z,19.40
2022-08-30T16:59:33.155Z,19.04
2022-08-30T17:02:42.749Z,18.86
2022-08-30T17:06:00.100Z,19.26
2022-08-30T17:09:08.000Z,19.18
2022-08-30T17:12:14.436Z,18.86
2022-08-30T17:15:22.242Z,18.97
2022-08-30T17:18:30.319Z,19.03
2022-08-30T17:21:37.234Z,19.44
2022-08-30T17:24:46.445Z,19.21
2022-08-30T17:27:52.922Z,19.28
2022-08-30T17:30:59.569Z,19.29
2022-08-30T17:34:07.583Z,19.34
2022-08-30T17:37:14.040Z,19.03
2022-08-30T17:40:21.019Z,19.19
2022-08-30T17:43:27.451Z,19.06
2022-08-30T17:46:36.787Z,19.12
2022-08-30T17:49:44.675Z,19.35
2022-08-30T17:52:51.492Z,19.20
2022-08-30T17:55:58.591Z,19.03
2022-08-30T17:59:08.148Z,18.95
2022-08-30T18:02:16.227Z,18.93
2022-08-30T18:05:31.034Z,19.02
2022-08-30T18:08:40.456Z,18.88
2022-08-30T18:11:46.630Z,18.79
2022-08-30T18:14:54.708Z,18.74
2022-08-30T18:18:01.036Z,18.67
2022-08-30T18:21:16.195Z,18.77
2022-08-30T18:24:23.125Z,18.70
2022-08-30T18:27:29.693Z,18.43
2022-08-30T18:30:39.980Z,18.54
2022-08-30T18:33:49.096Z,18.52
2022-08-30T18:36:57.532Z,18.54
2022-08-30T18:40:04.486Z,18.55
2022-08-30T18:43:10.924Z,18.63
2022-08-30T18:46:19.131Z,18.67
2022-08-30T18:49:25.961Z,18.40
2022-08-30T18:52:34.092Z,18.34
2022-08-30T18:55:42.373Z,18.56
2022-08-30T18:58:48.867Z,18.25
2022-08-30T19:01:55.318Z,18.26
2022-08-30T19:05:01.988Z,18.39
2022-08-30T19:08:09.976Z,18.54
2022-08-30T19:11:16.351Z,18.34
2022-08-30T19:14:23.323Z,18.44
2022-08-30T19:17:34.821Z,18.29
2022-08-30T19:20:41.102Z,18.17
2022-08-30T19:23:54.877Z,18.14
2022-08-30T19:27:01.471Z,18.38
2022-08-30T19:30:09.815Z,18.22
2022-08-30T19:33:17.524Z,18.34
2022-08-30T19:36:24.514Z,17.66
2022-08-30T19:39:33.300Z,17.34
2022-08-30T19:42:46.028Z,17.88
2022-08-30T19:45:55.769Z,17.94
2022-08-30T19:49:04.354Z,17.86
2022-08-30T19:52:11.234Z,18.03
2022-08-30T19:55:19.656Z,17.81
2022-08-30T19:58:35.102Z,17.40
2022-08-30T20:01:42.507Z,17.09
2022-08-30T20:04:51.788Z,17.49
2022-08-30T20:07:58.383Z,17.88
2022-08-30T20:11:07.152Z,17.83
2022-08-30T20:14:15.315Z,17.80
2022-08-30T20:17:22.132Z,17.80
2022-08-30T20:20:28.845Z,17.69
2022-08-30T20:23:35.787Z,17.72
2022-08-30T20:26:43.542Z,17.83
2022-08-30T20:29:49.640Z,17.53
2022-08-30T20:32:56.214Z,17.80
2022-08-30T20:36:03.795Z,17.71
2022-08-30T20:39:10.535Z,17.94
2022-08-30T20:42:26.238Z,17.88
2022-08-30T20:45:34.791Z,18.09
2022-08-30T20:48:41.890Z,17.79
2022-08-30T20:51:52.853Z,17.69
2022-08-30T20:55:00.878Z,17.68
2022-08-30T20:58:08.568Z,17.45
2022-08-30T21:01:17.238Z,17.30
2022-08-30T21:04:23.860Z,17.24
2022-08-30T21:07:30.479Z,16.78
2022-08-30T21:10:36.839Z,16.62
2022-08-30T21:13:45.660Z,16.78
2022-08-30T21:16:52.137Z,16.45
2022-08-30T21:19:59.099Z,16.01
2022-08-30T21:23:05.827Z,16.31
2022-08-30T21:26:12.287Z,16.29
2022-08-30T21:29:20.154Z,16.43
2022-08-30T21:32:26.387Z,16.36
2022-08-30T21:35:49.871Z,16.27
2022-08-30T21:39:00.732Z,16.58
2022-08-30T21:42:07.547Z,16.85
2022-08-30T21:45:16.692Z,16.57
2022-08-30T21:48:23.313Z,17.07
2022-08-30T21:51:30.539Z,16.82
2022-08-30T21:54:37.019Z,16.94
2022-08-30T21:57:43.597Z,17.27
2022-08-30T22:00:51.998Z,17.19
2022-08-30T22:04:00.902Z,17.30
2022-08-30T22:07:08.414Z,17.54
2022-08-30T22:10:14.972Z,17.32
2022-08-30T22:13:21.034Z,17.25
2022-08-30T22:16:29.418Z,17.28
2022-08-30T22:19:36.036Z,17.11
2022-08-30T22:22:42.691Z,17.16
2022-08-30T22:25:51.232Z,17.42
2022-08-30T22:28:57.680Z,17.43
2022-08-30T22:32:06.090Z,17.40
2022-08-30T22:35:12.567Z,17.63
2022-08-30T22:38:19.035Z,16.86
2022-08-30T22:41:31.458Z,17.61
2022-08-30T22:44:38.225Z,17.21
2022-08-30T22:47:46.043Z,16.85
2022-08-30T22:50:52.170Z,16.79
2022-08-30T22:53:58.758Z,16.67
2022-08-30T22:57:04.899Z,17.14
2022-08-30T23:00:15.738Z,17.32
2022-08-30T23:03:23.707Z,17.02
2022-08-30T23:06:30.759Z,17.25
2022-08-30T23:09:37.002Z,16.66
2022-08-30T23:12:43.172Z,16.67
2022-08-30T23:15:49.358Z,16.84
2022-08-30T23:18:56.918Z,16.84
2022-08-30T23:22:03.418Z,16.73
2022-08-30T23:25:28.120Z,17.12
2022-08-30T23:28:55.567Z,17.51
2022-08-30T23:32:19.411Z,17.31
2022-08-30T23:35:44.581Z,17.26
2022-08-30T23:39:08.463Z,17.27
2022-08-30T23:42:33.675Z,17.23
2022-08-30T23:45:57.920Z,17.32
2022-08-30T23:49:21.676Z,17.46
2022-08-30T23:52:46.645Z,17.59
2022-08-30T23:56:10.339Z,17.59
2022-08-30T23:59:35.351Z,17.74
